sensor_id;sensor_type;location;lat;lon;timestamp;pressure;altitude;pressure_sealevel;temperature;humidity
66396;BME280;53207;51.378;-1.342;2023-04-08T00:01:48;100954.63;;;21.75;34.04
66396;BME280;53207;51.378;-1.342;2023-04-08T00:04:16;100955.37;;;21.72;34.00
66396;BME280;53207;51.378;-1.342;2023-04-08T00:06:43;100955.85;;;21.71;33.95
66396;BME280;53207;51.378;-1.342;2023-04-08T00:09:10;100956.54;;;21.64;34.01
66396;BME280;53207;51.378;-1.342;2023-04-08T00:11:38;100959.81;;;21.91;33.97
66396;BME280;53207;51.378;-1.342;2023-04-08T00:14:05;100959.10;;;21.67;33.86
66396;BME280;53207;51.378;-1.342;2023-04-08T00:16:33;100961.55;;;21.62;33.85
66396;BME280;53207;51.378;-1.342;2023-04-08T00:19:00;100961.95;;;21.78;33.91
66396;BME280;53207;51.378;-1.342;2023-04-08T00:21:29;100961.11;;;21.87;33.73
66396;BME280;53207;51.378;-1.342;2023-04-08T00:23:56;100961.24;;;21.58;33.74
66396;BME280;53207;51.378;-1.342;2023-04-08T00:26:23;100960.55;;;21.53;33.73
66396;BME280;53207;51.378;-1.342;2023-04-08T00:28:51;100957.55;;;21.82;33.67
66396;BME280;53207;51.378;-1.342;2023-04-08T00:31:23;100955.61;;;21.76;33.70
66396;BME280;53207;51.378;-1.342;2023-04-08T00:33:51;100956.16;;;21.46;33.65
66396;BME280;53207;51.378;-1.342;2023-04-08T00:36:19;100955.31;;;21.78;33.59
66396;BME280;53207;51.378;-1.342;2023-04-08T00:38:47;100954.57;;;21.68;33.65
66396;BME280;53207;51.378;-1.342;2023-04-08T00:41:15;100956.09;;;21.48;33.50
66396;BME280;53207;51.378;-1.342;2023-04-08T00:43:42;100957.47;;;21.69;33.49
66396;BME280;53207;51.378;-1.342;2023-04-08T00:46:10;100957.68;;;21.72;33.44
66396;BME280;53207;51.378;-1.342;2023-04-08T00:48:37;100954.71;;;21.69;33.41
66396;BME280;53207;51.378;-1.342;2023-04-08T00:51:04;100954.28;;;21.68;33.38
66396;BME280;53207;51.378;-1.342;2023-04-08T00:53:32;100955.37;;;21.36;33.37
66396;BME280;53207;51.378;-1.342;2023-04-08T00:55:59;100953.35;;;21.36;33.34
66396;BME280;53207;51.378;-1.342;2023-04-08T00:58:27;100954.62;;;21.58;33.33
66396;BME280;53207;51.378;-1.342;2023-04-08T01:00:59;100955.57;;;21.58;33.29
66396;BME280;53207;51.378;-1.342;2023-04-08T01:03:35;100957.69;;;21.55;33.29
66396;BME280;53207;51.378;-1.342;2023-04-08T01:06:10;100959.22;;;21.50;33.28
66396;BME280;53207;51.378;-1.342;2023-04-08T01:08:40;100960.59;;;21.51;33.22
66396;BME280;53207;51.378;-1.342;2023-04-08T01:11:13;100959.96;;;21.51;33.19
66396;BME280;53207;51.378;-1.342;2023-04-08T01:13:42;100958.57;;;21.51;33.13
66396;BME280;53207;51.378;-1.342;2023-04-08T01:16:14;100960.18;;;21.46;33.13
66396;BME280;53207;51.378;-1.342;2023-04-08T01:18:43;100963.18;;;21.45;33.12
66396;BME280;53207;51.378;-1.342;2023-04-08T01:21:11;100966.81;;;21.42;33.08
66396;BME280;53207;51.378;-1.342;2023-04-08T01:23:45;100964.13;;;21.43;33.05
66396;BME280;53207;51.378;-1.342;2023-04-08T01:26:21;100967.38;;;21.39;33.03
66396;BME280;53207;51.378;-1.342;2023-04-08T01:28:50;100970.09;;;21.84;32.99
66396;BME280;53207;51.378;-1.342;2023-04-08T01:31:19;100972.61;;;21.38;32.99
66396;BME280;53207;51.378;-1.342;2023-04-08T01:33:48;100973.22;;;21.36;32.94
66396;BME280;53207;51.378;-1.342;2023-04-08T01:36:17;100975.75;;;21.33;32.95
66396;BME280;53207;51.378;-1.342;2023-04-08T01:38:48;100978.92;;;21.30;32.91
66396;BME280;53207;51.378;-1.342;2023-04-08T01:41:17;100980.44;;;21.31;32.88
66396;BME280;53207;51.378;-1.342;2023-04-08T01:43:46;100981.33;;;21.30;32.84
66396;BME280;53207;51.378;-1.342;2023-04-08T01:46:15;100982.02;;;21.46;32.85
66396;BME280;53207;51.378;-1.342;2023-04-08T01:48:43;100981.87;;;21.25;32.81
66396;BME280;53207;51.378;-1.342;2023-04-08T01:51:11;100984.65;;;21.25;32.77
66396;BME280;53207;51.378;-1.342;2023-04-08T01:53:39;100983.94;;;21.22;32.77
66396;BME280;53207;51.378;-1.342;2023-04-08T01:56:10;100984.25;;;21.19;32.75
66396;BME280;53207;51.378;-1.342;2023-04-08T01:58:41;100982.16;;;21.19;32.73
66396;BME280;53207;51.378;-1.342;2023-04-08T02:01:11;100986.11;;;21.14;32.75
66396;BME280;53207;51.378;-1.342;2023-04-08T02:03:42;100989.46;;;21.15;32.70
66396;BME280;53207;51.378;-1.342;2023-04-08T02:06:09;100992.38;;;21.11;32.73
66396;BME280;53207;51.378;-1.342;2023-04-08T02:08:37;100994.27;;;21.08;32.71
66396;BME280;53207;51.378;-1.342;2023-04-08T02:11:04;100991.65;;;21.05;32.73
66396;BME280;53207;51.378;-1.342;2023-04-08T02:13:31;100990.99;;;21.06;32.68
66396;BME280;53207;51.378;-1.342;2023-04-08T02:16:07;100992.30;;;21.08;32.62
66396;BME280;53207;51.378;-1.342;2023-04-08T02:18:37;100990.91;;;21.24;32.66
66396;BME280;53207;51.378;-1.342;2023-04-08T02:21:11;100988.51;;;21.02;32.63
66396;BME280;53207;51.378;-1.342;2023-04-08T02:23:39;100989.70;;;21.23;32.62
66396;BME280;53207;51.378;-1.342;2023-04-08T02:26:09;100989.55;;;20.99;32.61
66396;BME280;53207;51.378;-1.342;2023-04-08T02:28:45;100990.92;;;20.96;32.63
66396;BME280;53207;51.378;-1.342;2023-04-08T02:31:16;100991.97;;;20.94;32.61
66396;BME280;53207;51.378;-1.342;2023-04-08T02:33:46;100991.39;;;20.92;32.60
66396;BME280;53207;51.378;-1.342;2023-04-08T02:36:15;100990.76;;;20.90;32.60
66396;BME280;53207;51.378;-1.342;2023-04-08T02:38:47;100990.55;;;21.10;32.59
66396;BME280;53207;51.378;-1.342;2023-04-08T02:41:14;100992.58;;;20.84;32.58
66396;BME280;53207;51.378;-1.342;2023-04-08T02:43:41;100995.98;;;21.10;32.54
66396;BME280;53207;51.378;-1.342;2023-04-08T02:46:10;100998.21;;;21.06;32.55
66396;BME280;53207;51.378;-1.342;2023-04-08T02:48:37;101001.40;;;20.77;32.59
66396;BME280;53207;51.378;-1.342;2023-04-08T02:51:04;101001.28;;;20.80;32.55
66396;BME280;53207;51.378;-1.342;2023-04-08T02:53:31;101004.59;;;20.80;32.51
66396;BME280;53207;51.378;-1.342;2023-04-08T02:55:59;101007.60;;;20.75;32.54
66396;BME280;53207;51.378;-1.342;2023-04-08T02:58:26;101006.59;;;20.73;32.54
66396;BME280;53207;51.378;-1.342;2023-04-08T03:00:54;101006.60;;;20.72;32.51
66396;BME280;53207;51.378;-1.342;2023-04-08T03:03:21;101008.10;;;20.69;32.54
66396;BME280;53207;51.378;-1.342;2023-04-08T03:05:48;101011.74;;;20.68;32.55
66396;BME280;53207;51.378;-1.342;2023-04-08T03:08:15;101014.01;;;20.66;32.53
66396;BME280;53207;51.378;-1.342;2023-04-08T03:10:43;101014.33;;;21.12;32.51
66396;BME280;53207;51.378;-1.342;2023-04-08T03:13:10;101017.93;;;21.11;32.49
66396;BME280;53207;51.378;-1.342;2023-04-08T03:15:37;101020.89;;;20.62;32.51
66396;BME280;53207;51.378;-1.342;2023-04-08T03:18:04;101027.70;;;21.05;32.51
66396;BME280;53207;51.378;-1.342;2023-04-08T03:20:32;101031.36;;;20.60;32.50
66396;BME280;53207;51.378;-1.342;2023-04-08T03:22:59;101030.41;;;21.04;32.49
66396;BME280;53207;51.378;-1.342;2023-04-08T03:25:27;101025.51;;;21.02;32.46
66396;BME280;53207;51.378;-1.342;2023-04-08T03:27:54;101026.15;;;20.76;32.50
66396;BME280;53207;51.378;-1.342;2023-04-08T03:30:21;101028.33;;;20.78;32.45
66396;BME280;53207;51.378;-1.342;2023-04-08T03:32:48;101030.30;;;20.96;32.47
66396;BME280;53207;51.378;-1.342;2023-04-08T03:35:16;101030.13;;;20.96;32.46
66396;BME280;53207;51.378;-1.342;2023-04-08T03:37:43;101028.25;;;20.75;32.43
66396;BME280;53207;51.378;-1.342;2023-04-08T03:40:11;101030.27;;;20.95;32.45
66396;BME280;53207;51.378;-1.342;2023-04-08T03:42:38;101031.31;;;20.73;32.41
66396;BME280;53207;51.378;-1.342;2023-04-08T03:45:07;101034.38;;;20.91;32.44
66396;BME280;53207;51.378;-1.342;2023-04-08T03:47:34;101037.12;;;20.88;32.47
66396;BME280;53207;51.378;-1.342;2023-04-08T03:50:01;101040.88;;;20.67;32.43
66396;BME280;53207;51.378;-1.342;2023-04-08T03:52:28;101042.90;;;20.87;32.45
66396;BME280;53207;51.378;-1.342;2023-04-08T03:54:56;101043.18;;;20.85;32.46
66396;BME280;53207;51.378;-1.342;2023-04-08T03:57:24;101040.27;;;20.62;32.45
66396;BME280;53207;51.378;-1.342;2023-04-08T03:59:52;101042.73;;;20.80;32.48
66396;BME280;53207;51.378;-1.342;2023-04-08T04:02:24;101046.23;;;20.59;32.45
66396;BME280;53207;51.378;-1.342;2023-04-08T04:04:52;101050.82;;;20.56;32.48
66396;BME280;53207;51.378;-1.342;2023-04-08T04:07:19;101053.97;;;20.77;32.48
66396;BME280;53207;51.378;-1.342;2023-04-08T04:09:48;101053.56;;;20.56;32.43
66396;BME280;53207;51.378;-1.342;2023-04-08T04:12:20;101056.29;;;20.51;32.46
66396;BME280;53207;51.378;-1.342;2023-04-08T04:14:52;101054.84;;;20.73;32.45
66396;BME280;53207;51.378;-1.342;2023-04-08T04:17:20;101058.91;;;20.69;32.47
66396;BME280;53207;51.378;-1.342;2023-04-08T04:19:47;101060.19;;;20.63;32.54
66396;BME280;53207;51.378;-1.342;2023-04-08T04:22:15;101059.21;;;20.67;32.46
66396;BME280;53207;51.378;-1.342;2023-04-08T04:24:47;101061.70;;;20.65;32.47
66396;BME280;53207;51.378;-1.342;2023-04-08T04:27:16;101059.92;;;20.64;32.51
66396;BME280;53207;51.378;-1.342;2023-04-08T04:29:49;101060.54;;;20.63;32.52
66396;BME280;53207;51.378;-1.342;2023-04-08T04:32:21;101063.60;;;20.58;32.57
66396;BME280;53207;51.378;-1.342;2023-04-08T04:34:49;101064.18;;;20.58;32.56
66396;BME280;53207;51.378;-1.342;2023-04-08T04:37:17;101067.54;;;20.35;32.54
66396;BME280;53207;51.378;-1.342;2023-04-08T04:39:44;101068.56;;;20.61;32.51
66396;BME280;53207;51.378;-1.342;2023-04-08T04:42:11;101073.60;;;20.55;32.55
66396;BME280;53207;51.378;-1.342;2023-04-08T04:44:38;101078.01;;;20.54;32.55
66396;BME280;53207;51.378;-1.342;2023-04-08T04:47:06;101079.77;;;20.53;32.54
66396;BME280;53207;51.378;-1.342;2023-04-08T04:49:33;101082.08;;;20.54;32.52
66396;BME280;53207;51.378;-1.342;2023-04-08T04:52:00;101082.81;;;20.47;32.59
66396;BME280;53207;51.378;-1.342;2023-04-08T04:54:27;101085.77;;;20.49;32.57
66396;BME280;53207;51.378;-1.342;2023-04-08T04:56:55;101089.91;;;20.45;32.61
66396;BME280;53207;51.378;-1.342;2023-04-08T04:59:23;101087.99;;;20.44;32.59
66396;BME280;53207;51.378;-1.342;2023-04-08T05:01:49;101089.82;;;20.40;32.61
66396;BME280;53207;51.378;-1.342;2023-04-08T05:04:17;101091.77;;;20.42;32.59
66396;BME280;53207;51.378;-1.342;2023-04-08T05:06:44;101094.42;;;20.18;32.59
66396;BME280;53207;51.378;-1.342;2023-04-08T05:09:11;101097.25;;;20.40;32.58
66396;BME280;53207;51.378;-1.342;2023-04-08T05:11:39;101097.46;;;20.38;32.60
66396;BME280;53207;51.378;-1.342;2023-04-08T05:14:06;101097.12;;;20.37;32.60
66396;BME280;53207;51.378;-1.342;2023-04-08T05:16:33;101093.78;;;20.37;32.57
66396;BME280;53207;51.378;-1.342;2023-04-08T05:19:01;101094.64;;;20.34;32.58
66396;BME280;53207;51.378;-1.342;2023-04-08T05:21:28;101093.54;;;20.63;32.54
66396;BME280;53207;51.378;-1.342;2023-04-08T05:23:56;101097.81;;;20.08;32.58
66396;BME280;53207;51.378;-1.342;2023-04-08T05:26:23;101097.90;;;20.56;32.57
66396;BME280;53207;51.378;-1.342;2023-04-08T05:28:51;101097.97;;;20.28;32.57
66396;BME280;53207;51.378;-1.342;2023-04-08T05:31:19;101100.23;;;20.30;32.53
66396;BME280;53207;51.378;-1.342;2023-04-08T05:33:47;101101.01;;;20.06;32.55
66396;BME280;53207;51.378;-1.342;2023-04-08T05:36:14;101102.74;;;20.24;32.56
66396;BME280;53207;51.378;-1.342;2023-04-08T05:38:42;101105.75;;;20.23;32.56
66396;BME280;53207;51.378;-1.342;2023-04-08T05:41:09;101107.61;;;20.45;32.59
66396;BME280;53207;51.378;-1.342;2023-04-08T05:43:41;101105.65;;;20.23;32.51
66396;BME280;53207;51.378;-1.342;2023-04-08T05:46:09;101108.28;;;20.21;32.53
66396;BME280;53207;51.378;-1.342;2023-04-08T05:48:42;101107.28;;;20.18;32.56
66396;BME280;53207;51.378;-1.342;2023-04-08T05:51:13;101111.61;;;20.18;32.53
66396;BME280;53207;51.378;-1.342;2023-04-08T05:53:45;101113.83;;;20.17;32.51
66396;BME280;53207;51.378;-1.342;2023-04-08T05:56:12;101112.55;;;20.12;32.54
66396;BME280;53207;51.378;-1.342;2023-04-08T05:58:50;101117.39;;;20.15;32.50
66396;BME280;53207;51.378;-1.342;2023-04-08T06:01:16;101123.05;;;20.10;32.55
66396;BME280;53207;51.378;-1.342;2023-04-08T06:03:44;101126.99;;;20.09;32.55
66396;BME280;53207;51.378;-1.342;2023-04-08T06:06:12;101128.10;;;20.36;32.50
66396;BME280;53207;51.378;-1.342;2023-04-08T06:08:39;101129.67;;;20.12;32.46
66396;BME280;53207;51.378;-1.342;2023-04-08T06:11:07;101130.72;;;20.07;32.49
66396;BME280;53207;51.378;-1.342;2023-04-08T06:13:34;101130.72;;;20.03;32.50
66396;BME280;53207;51.378;-1.342;2023-04-08T06:16:09;101135.57;;;20.05;32.46
66396;BME280;53207;51.378;-1.342;2023-04-08T06:18:37;101134.75;;;20.05;32.43
66396;BME280;53207;51.378;-1.342;2023-04-08T06:21:04;101135.77;;;20.05;32.40
66396;BME280;53207;51.378;-1.342;2023-04-08T06:23:31;101137.55;;;20.07;32.34
66396;BME280;53207;51.378;-1.342;2023-04-08T06:25:58;101142.16;;;20.06;32.31
66396;BME280;53207;51.378;-1.342;2023-04-08T06:28:26;101146.56;;;20.01;32.33
66396;BME280;53207;51.378;-1.342;2023-04-08T06:30:55;101149.69;;;20.00;32.31
66396;BME280;53207;51.378;-1.342;2023-04-08T06:33:22;101157.06;;;19.95;32.35
66396;BME280;53207;51.378;-1.342;2023-04-08T06:35:49;101159.51;;;19.99;32.29
66396;BME280;53207;51.378;-1.342;2023-04-08T06:38:19;101163.44;;;19.96;32.38
66396;BME280;53207;51.378;-1.342;2023-04-08T06:40:46;101163.75;;;20.19;32.55
66396;BME280;53207;51.378;-1.342;2023-04-08T06:43:13;101167.83;;;20.02;32.57
66396;BME280;53207;51.378;-1.342;2023-04-08T06:45:41;101167.90;;;20.00;32.60
66396;BME280;53207;51.378;-1.342;2023-04-08T06:48:08;101170.70;;;20.00;32.64
66396;BME280;53207;51.378;-1.342;2023-04-08T06:50:36;101176.80;;;20.04;32.58
66396;BME280;53207;51.378;-1.342;2023-04-08T06:53:03;101174.81;;;20.04;32.56
66396;BME280;53207;51.378;-1.342;2023-04-08T06:55:41;101172.99;;;20.01;32.57
66396;BME280;53207;51.378;-1.342;2023-04-08T06:58:18;101174.32;;;20.00;32.56
66396;BME280;53207;51.378;-1.342;2023-04-08T07:00:45;101171.74;;;20.01;32.55
66396;BME280;53207;51.378;-1.342;2023-04-08T07:03:13;101172.50;;;20.00;32.54
66396;BME280;53207;51.378;-1.342;2023-04-08T07:05:40;101173.41;;;19.94;32.62
66396;BME280;53207;51.378;-1.342;2023-04-08T07:08:07;101176.23;;;19.98;32.52
66396;BME280;53207;51.378;-1.342;2023-04-08T07:10:35;101173.80;;;19.75;32.52
66396;BME280;53207;51.378;-1.342;2023-04-08T07:13:02;101176.09;;;20.34;32.44
66396;BME280;53207;51.378;-1.342;2023-04-08T07:15:29;101173.91;;;20.16;32.54
66396;BME280;53207;51.378;-1.342;2023-04-08T07:17:57;101171.86;;;20.28;32.65
66396;BME280;53207;51.378;-1.342;2023-04-08T07:20:25;101171.92;;;20.44;32.65
66396;BME280;53207;51.378;-1.342;2023-04-08T07:22:53;101169.73;;;20.53;32.69
66396;BME280;53207;51.378;-1.342;2023-04-08T07:25:20;101170.10;;;20.67;32.64
66396;BME280;53207;51.378;-1.342;2023-04-08T07:27:47;101177.46;;;20.64;32.53
66396;BME280;53207;51.378;-1.342;2023-04-08T07:30:15;101182.39;;;20.95;32.52
66396;BME280;53207;51.378;-1.342;2023-04-08T07:32:47;101185.48;;;21.13;32.38
66396;BME280;53207;51.378;-1.342;2023-04-08T07:35:21;101190.10;;;20.77;32.34
66396;BME280;53207;51.378;-1.342;2023-04-08T07:37:48;101192.09;;;20.96;32.15
66396;BME280;53207;51.378;-1.342;2023-04-08T07:40:16;101193.36;;;21.02;32.02
66396;BME280;53207;51.378;-1.342;2023-04-08T07:42:44;101194.44;;;21.10;32.04
66396;BME280;53207;51.378;-1.342;2023-04-08T07:45:11;101198.22;;;21.20;32.09
66396;BME280;53207;51.378;-1.342;2023-04-08T07:47:39;101202.94;;;21.37;32.10
66396;BME280;53207;51.378;-1.342;2023-04-08T07:50:07;101204.53;;;21.46;32.14
66396;BME280;53207;51.378;-1.342;2023-04-08T07:52:35;101206.03;;;21.57;32.12
66396;BME280;53207;51.378;-1.342;2023-04-08T07:55:08;101206.11;;;21.67;32.05
66396;BME280;53207;51.378;-1.342;2023-04-08T07:57:36;101202.46;;;21.68;32.01
66396;BME280;53207;51.378;-1.342;2023-04-08T08:00:04;101210.35;;;21.90;31.88
66396;BME280;53207;51.378;-1.342;2023-04-08T08:02:33;101210.50;;;21.94;31.79
66396;BME280;53207;51.378;-1.342;2023-04-08T08:05:00;101213.39;;;21.97;31.72
66396;BME280;53207;51.378;-1.342;2023-04-08T08:07:28;101213.53;;;22.00;31.59
66396;BME280;53207;51.378;-1.342;2023-04-08T08:09:55;101213.42;;;21.72;31.67
66396;BME280;53207;51.378;-1.342;2023-04-08T08:12:22;101216.03;;;21.72;31.50
66396;BME280;53207;51.378;-1.342;2023-04-08T08:14:49;101219.20;;;22.00;31.44
66396;BME280;53207;51.378;-1.342;2023-04-08T08:17:17;101219.54;;;21.62;31.34
66396;BME280;53207;51.378;-1.342;2023-04-08T08:19:45;101223.05;;;22.13;31.33
66396;BME280;53207;51.378;-1.342;2023-04-08T08:22:12;101223.94;;;21.56;31.42
66396;BME280;53207;51.378;-1.342;2023-04-08T08:24:39;101222.96;;;22.14;31.39
66396;BME280;53207;51.378;-1.342;2023-04-08T08:27:09;101225.01;;;21.91;31.47
66396;BME280;53207;51.378;-1.342;2023-04-08T08:29:36;101225.71;;;21.70;31.61
66396;BME280;53207;51.378;-1.342;2023-04-08T08:32:03;101226.16;;;21.96;31.63
66396;BME280;53207;51.378;-1.342;2023-04-08T08:34:31;101227.09;;;21.96;31.65
66396;BME280;53207;51.378;-1.342;2023-04-08T08:36:58;101230.59;;;21.95;31.55
66396;BME280;53207;51.378;-1.342;2023-04-08T08:39:25;101227.31;;;21.91;31.56
66396;BME280;53207;51.378;-1.342;2023-04-08T08:41:53;101228.77;;;22.17;31.50
66396;BME280;53207;51.378;-1.342;2023-04-08T08:44:20;101231.20;;;21.65;31.54
66396;BME280;53207;51.378;-1.342;2023-04-08T08:46:48;101230.66;;;21.83;31.49
66396;BME280;53207;51.378;-1.342;2023-04-08T08:49:16;101230.01;;;21.81;31.45
66396;BME280;53207;51.378;-1.342;2023-04-08T08:51:45;101229.08;;;21.77;31.53
66396;BME280;53207;51.378;-1.342;2023-04-08T08:54:14;101230.92;;;21.81;31.36
66396;BME280;53207;51.378;-1.342;2023-04-08T08:56:42;101228.77;;;21.77;31.45
66396;BME280;53207;51.378;-1.342;2023-04-08T08:59:09;101229.56;;;22.02;31.43
66396;BME280;53207;51.378;-1.342;2023-04-08T09:01:37;101226.38;;;21.97;31.51
66396;BME280;53207;51.378;-1.342;2023-04-08T09:04:09;101225.16;;;21.96;31.53
66396;BME280;53207;51.378;-1.342;2023-04-08T09:06:37;101224.59;;;21.96;31.55
66396;BME280;53207;51.378;-1.342;2023-04-08T09:09:04;101224.43;;;21.96;31.57
66396;BME280;53207;51.378;-1.342;2023-04-08T09:11:32;101225.13;;;21.70;31.60
66396;BME280;53207;51.378;-1.342;2023-04-08T09:13:59;101225.04;;;21.68;31.61
66396;BME280;53207;51.378;-1.342;2023-04-08T09:16:26;101224.09;;;21.94;31.60
66396;BME280;53207;51.378;-1.342;2023-04-08T09:18:54;101225.44;;;21.94;31.58
66396;BME280;53207;51.378;-1.342;2023-04-08T09:21:22;101226.83;;;21.70;31.53
66396;BME280;53207;51.378;-1.342;2023-04-08T09:23:51;101229.91;;;21.95;31.52
66396;BME280;53207;51.378;-1.342;2023-04-08T09:26:20;101230.46;;;21.71;31.44
66396;BME280;53207;51.378;-1.342;2023-04-08T09:28:59;101231.29;;;21.48;31.44
66396;BME280;53207;51.378;-1.342;2023-04-08T09:31:28;101233.04;;;21.69;31.44
66396;BME280;53207;51.378;-1.342;2023-04-08T09:33:57;101234.55;;;21.99;31.35
66396;BME280;53207;51.378;-1.342;2023-04-08T09:36:25;101232.59;;;21.99;31.35
66396;BME280;53207;51.378;-1.342;2023-04-08T09:38:53;101231.40;;;21.69;31.36
66396;BME280;53207;51.378;-1.342;2023-04-08T09:41:21;101232.18;;;21.71;31.29
66396;BME280;53207;51.378;-1.342;2023-04-08T09:43:51;101232.25;;;22.00;31.26
66396;BME280;53207;51.378;-1.342;2023-04-08T09:46:26;101230.86;;;21.64;31.37
66396;BME280;53207;51.378;-1.342;2023-04-08T09:49:00;101232.85;;;21.69;31.23
66396;BME280;53207;51.378;-1.342;2023-04-08T09:51:34;101235.32;;;21.93;31.26
66396;BME280;53207;51.378;-1.342;2023-04-08T09:54:09;101231.84;;;21.66;31.25
66396;BME280;53207;51.378;-1.342;2023-04-08T09:56:43;101237.59;;;21.97;31.19
66396;BME280;53207;51.378;-1.342;2023-04-08T09:59:14;101236.02;;;21.67;31.22
66396;BME280;53207;51.378;-1.342;2023-04-08T10:01:47;101238.40;;;21.68;31.22
66396;BME280;53207;51.378;-1.342;2023-04-08T10:04:19;101240.89;;;21.94;31.22
66396;BME280;53207;51.378;-1.342;2023-04-08T10:06:49;101238.56;;;21.95;31.18
66396;BME280;53207;51.378;-1.342;2023-04-08T10:09:19;101241.83;;;21.97;31.22
66396;BME280;53207;51.378;-1.342;2023-04-08T10:11:47;101234.81;;;21.98;31.19
66396;BME280;53207;51.378;-1.342;2023-04-08T10:14:15;101232.37;;;21.98;31.17
66396;BME280;53207;51.378;-1.342;2023-04-08T10:16:42;101235.49;;;21.74;31.07
66396;BME280;53207;51.378;-1.342;2023-04-08T10:19:36;101234.10;;;21.75;31.08
66396;BME280;53207;51.378;-1.342;2023-04-08T10:22:45;101231.22;;;21.77;30.93
66396;BME280;53207;51.378;-1.342;2023-04-08T10:25:31;101230.14;;;22.02;30.91
66396;BME280;53207;51.378;-1.342;2023-04-08T10:27:58;101225.25;;;22.06;30.88
66396;BME280;53207;51.378;-1.342;2023-04-08T10:30:43;101225.74;;;22.09;30.80
66396;BME280;53207;51.378;-1.342;2023-04-08T10:33:12;101225.92;;;21.85;30.78
66396;BME280;53207;51.378;-1.342;2023-04-08T10:35:43;101227.91;;;22.11;30.82
66396;BME280;53207;51.378;-1.342;2023-04-08T10:38:13;101234.21;;;21.87;30.78
66396;BME280;53207;51.378;-1.342;2023-04-08T10:40:42;101237.86;;;21.68;30.71
66396;BME280;53207;51.378;-1.342;2023-04-08T10:43:11;101239.33;;;21.87;30.79
66396;BME280;53207;51.378;-1.342;2023-04-08T10:45:39;101241.28;;;21.81;30.85
66396;BME280;53207;51.378;-1.342;2023-04-08T10:48:15;101238.86;;;21.79;30.86
66396;BME280;53207;51.378;-1.342;2023-04-08T10:50:44;101236.46;;;21.76;30.87
66396;BME280;53207;51.378;-1.342;2023-04-08T10:53:11;101233.43;;;21.56;30.84
66396;BME280;53207;51.378;-1.342;2023-04-08T10:55:38;101233.79;;;21.82;30.79
66396;BME280;53207;51.378;-1.342;2023-04-08T10:58:07;101232.24;;;22.11;30.75
66396;BME280;53207;51.378;-1.342;2023-04-08T11:00:36;101227.90;;;22.12;30.72
66396;BME280;53207;51.378;-1.342;2023-04-08T11:03:06;101229.51;;;21.86;30.73
66396;BME280;53207;51.378;-1.342;2023-04-08T11:05:35;101223.11;;;21.88;30.67
66396;BME280;53207;51.378;-1.342;2023-04-08T11:08:03;101218.03;;;21.67;30.66
66396;BME280;53207;51.378;-1.342;2023-04-08T11:10:36;101212.07;;;21.88;30.67
66396;BME280;53207;51.378;-1.342;2023-04-08T11:13:05;101212.98;;;22.13;30.68
66396;BME280;53207;51.378;-1.342;2023-04-08T11:15:34;101211.22;;;22.17;30.67
66396;BME280;53207;51.378;-1.342;2023-04-08T11:18:02;101210.18;;;21.66;30.66
66396;BME280;53207;51.378;-1.342;2023-04-08T11:20:31;101210.92;;;21.87;30.64
66396;BME280;53207;51.378;-1.342;2023-04-08T11:22:59;101208.42;;;21.90;30.63
66396;BME280;53207;51.378;-1.342;2023-04-08T11:25:26;101207.83;;;21.94;30.56
66396;BME280;53207;51.378;-1.342;2023-04-08T11:27:54;101203.61;;;21.88;30.57
66396;BME280;53207;51.378;-1.342;2023-04-08T11:30:23;101203.13;;;22.13;30.57
66396;BME280;53207;51.378;-1.342;2023-04-08T11:32:51;101200.67;;;21.79;30.62
66396;BME280;53207;51.378;-1.342;2023-04-08T11:35:18;101200.44;;;21.81;30.57
66396;BME280;53207;51.378;-1.342;2023-04-08T11:37:46;101201.64;;;21.80;30.59
66396;BME280;53207;51.378;-1.342;2023-04-08T11:40:19;101201.87;;;22.03;30.64
66396;BME280;53207;51.378;-1.342;2023-04-08T11:42:47;101205.68;;;22.01;30.62
66396;BME280;53207;51.378;-1.342;2023-04-08T11:45:16;101207.07;;;21.76;30.60
66396;BME280;53207;51.378;-1.342;2023-04-08T11:47:43;101209.59;;;22.06;30.52
66396;BME280;53207;51.378;-1.342;2023-04-08T11:50:11;101207.81;;;21.80;30.51
66396;BME280;53207;51.378;-1.342;2023-04-08T11:52:41;101204.54;;;21.77;30.53
66396;BME280;53207;51.378;-1.342;2023-04-08T11:55:09;101205.41;;;21.74;30.51
66396;BME280;53207;51.378;-1.342;2023-04-08T11:57:36;101206.20;;;21.99;30.51
66396;BME280;53207;51.378;-1.342;2023-04-08T12:00:05;101203.66;;;21.68;30.53
66396;BME280;53207;51.378;-1.342;2023-04-08T12:02:32;101199.34;;;21.47;30.49
66396;BME280;53207;51.378;-1.342;2023-04-08T12:04:59;101197.13;;;22.02;30.50
66396;BME280;53207;51.378;-1.342;2023-04-08T12:07:26;101194.56;;;21.79;30.44
66396;BME280;53207;51.378;-1.342;2023-04-08T12:09:54;101191.95;;;21.52;30.49
66396;BME280;53207;51.378;-1.342;2023-04-08T12:12:21;101193.82;;;22.07;30.44
66396;BME280;53207;51.378;-1.342;2023-04-08T12:14:48;101193.99;;;21.58;30.46
66396;BME280;53207;51.378;-1.342;2023-04-08T12:17:15;101193.97;;;22.07;30.47
66396;BME280;53207;51.378;-1.342;2023-04-08T12:19:43;101194.54;;;21.57;30.45
66396;BME280;53207;51.378;-1.342;2023-04-08T12:22:10;101194.50;;;21.82;30.43
66396;BME280;53207;51.378;-1.342;2023-04-08T12:24:37;101196.59;;;22.07;30.43
66396;BME280;53207;51.378;-1.342;2023-04-08T12:27:05;101195.93;;;21.80;30.45
66396;BME280;53207;51.378;-1.342;2023-04-08T12:29:32;101195.95;;;22.04;30.47
66396;BME280;53207;51.378;-1.342;2023-04-08T12:32:00;101192.33;;;21.72;30.51
66396;BME280;53207;51.378;-1.342;2023-04-08T12:34:27;101194.46;;;21.69;30.52
66396;BME280;53207;51.378;-1.342;2023-04-08T12:36:55;101195.66;;;21.68;30.49
66396;BME280;53207;51.378;-1.342;2023-04-08T12:39:22;101194.53;;;21.91;30.52
66396;BME280;53207;51.378;-1.342;2023-04-08T12:41:49;101195.45;;;21.43;30.50
66396;BME280;53207;51.378;-1.342;2023-04-08T12:44:16;101191.52;;;21.66;30.58
66396;BME280;53207;51.378;-1.342;2023-04-08T12:46:44;101191.20;;;21.48;30.85
66396;BME280;53207;51.378;-1.342;2023-04-08T12:49:11;101190.35;;;21.67;30.72